sensor_id;sensor_type;location;lat;lon;timestamp;P1;durP1;ratioP1;P2;durP2;ratioP2
39768;SDS011;38939;47.824;14.642;2023-06-22T00:02:56;8.48;;;4.00;;
39768;SDS011;38939;47.824;14.642;2023-06-22T00:03:59;10.63;;;4.65;;
39768;SDS011;38939;47.824;14.642;2023-06-22T00:05:01;8.98;;;5.30;;
39768;SDS011;38939;47.824;14.642;2023-06-22T00:06:03;8.43;;;4.70;;
39768;SDS011;38939;47.824;14.642;2023-06-22T00:07:05;12.52;;;5.00;;
39768;SDS011;38939;47.824;14.642;2023-06-22T00:08:07;12.18;;;5.18;;
39768;SDS011;38939;47.824;14.642;2023-06-22T00:09:09;7.43;;;4.68;;
39768;SDS011;38939;47.824;14.642;2023-06-22T00:10:12;8.30;;;4.63;;
39768;SDS011;38939;47.824;14.642;2023-06-22T00:11:14;10.75;;;4.72;;
39768;SDS011;38939;47.824;14.642;2023-06-22T00:13:18;11.82;;;4.43;;
39768;SDS011;38939;47.824;14.642;2023-06-22T00:16:23;8.77;;;5.30;;
39768;SDS011;38939;47.824;14.642;2023-06-22T00:17:25;10.10;;;4.45;;
39768;SDS011;38939;47.824;14.642;2023-06-22T00:49:41;10.15;;;5.13;;
39768;SDS011;38939;47.824;14.642;2023-06-22T00:50:43;8.90;;;4.88;;
39768;SDS011;38939;47.824;14.642;2023-06-22T00:58:12;12.00;;;6.20;;
39768;SDS011;38939;47.824;14.642;2023-06-22T00:59:16;9.32;;;6.28;;
39768;SDS011;38939;47.824;14.642;2023-06-22T01:03:27;12.57;;;5.88;;
39768;SDS011;38939;47.824;14.642;2023-06-22T01:04:36;11.40;;;5.85;;
39768;SDS011;38939;47.824;14.642;2023-06-22T01:05:40;11.43;;;6.25;;
39768;SDS011;38939;47.824;14.642;2023-06-22T01:06:45;12.23;;;6.45;;
39768;SDS011;38939;47.824;14.642;2023-06-22T01:09:27;9.80;;;5.30;;
39768;SDS011;38939;47.824;14.642;2023-06-22T01:10:41;13.50;;;5.60;;
39768;SDS011;38939;47.824;14.642;2023-06-22T01:11:57;10.65;;;5.55;;
39768;SDS011;38939;47.824;14.642;2023-06-22T01:13:04;12.80;;;7.00;;
39768;SDS011;38939;47.824;14.642;2023-06-22T01:14:15;9.20;;;6.38;;
39768;SDS011;38939;47.824;14.642;2023-06-22T01:16:34;11.98;;;5.82;;
39768;SDS011;38939;47.824;14.642;2023-06-22T01:17:39;10.10;;;6.20;;
39768;SDS011;38939;47.824;14.642;2023-06-22T01:18:43;12.60;;;7.03;;
39768;SDS011;38939;47.824;14.642;2023-06-22T01:19:48;10.05;;;6.38;;
39768;SDS011;38939;47.824;14.642;2023-06-22T01:20:58;9.40;;;6.40;;
39768;SDS011;38939;47.824;14.642;2023-06-22T01:24:14;10.27;;;6.65;;
39768;SDS011;38939;47.824;14.642;2023-06-22T01:25:33;13.38;;;6.72;;
39768;SDS011;38939;47.824;14.642;2023-06-22T01:27:00;9.73;;;7.05;;
39768;SDS011;38939;47.824;14.642;2023-06-22T01:28:53;12.43;;;6.63;;
39768;SDS011;38939;47.824;14.642;2023-06-22T01:29:33;11.27;;;6.78;;
39768;SDS011;38939;47.824;14.642;2023-06-22T01:30:38;12.05;;;6.10;;
39768;SDS011;38939;47.824;14.642;2023-06-22T01:31:41;13.15;;;6.45;;
39768;SDS011;38939;47.824;14.642;2023-06-22T01:32:46;12.13;;;6.25;;
39768;SDS011;38939;47.824;14.642;2023-06-22T01:33:54;10.90;;;6.07;;
39768;SDS011;38939;47.824;14.642;2023-06-22T01:35:07;11.00;;;6.10;;
39768;SDS011;38939;47.824;14.642;2023-06-22T01:36:11;12.25;;;6.60;;
39768;SDS011;38939;47.824;14.642;2023-06-22T01:37:15;15.52;;;7.20;;
39768;SDS011;38939;47.824;14.642;2023-06-22T01:38:17;15.07;;;6.75;;
39768;SDS011;38939;47.824;14.642;2023-06-22T01:39:20;12.45;;;6.63;;
39768;SDS011;38939;47.824;14.642;2023-06-22T01:40:23;11.07;;;6.80;;
39768;SDS011;38939;47.824;14.642;2023-06-22T01:41:27;9.68;;;6.55;;
39768;SDS011;38939;47.824;14.642;2023-06-22T01:42:31;9.63;;;6.63;;
39768;SDS011;38939;47.824;14.642;2023-06-22T01:43:34;13.45;;;7.13;;
39768;SDS011;38939;47.824;14.642;2023-06-22T01:44:37;9.05;;;6.60;;
39768;SDS011;38939;47.824;14.642;2023-06-22T01:45:43;13.40;;;7.53;;
39768;SDS011;38939;47.824;14.642;2023-06-22T01:46:45;12.68;;;7.07;;
39768;SDS011;38939;47.824;14.642;2023-06-22T01:47:49;10.25;;;6.78;;
39768;SDS011;38939;47.824;14.642;2023-06-22T01:48:52;14.90;;;7.53;;
39768;SDS011;38939;47.824;14.642;2023-06-22T01:49:55;14.00;;;7.50;;
39768;SDS011;38939;47.824;14.642;2023-06-22T01:59:23;11.10;;;6.70;;
39768;SDS011;38939;47.824;14.642;2023-06-22T02:00:31;9.77;;;7.00;;
39768;SDS011;38939;47.824;14.642;2023-06-22T02:01:42;10.90;;;6.90;;
39768;SDS011;38939;47.824;14.642;2023-06-22T02:03:10;13.38;;;6.68;;
39768;SDS011;38939;47.824;14.642;2023-06-22T02:04:21;13.50;;;7.28;;
39768;SDS011;38939;47.824;14.642;2023-06-22T02:05:31;9.75;;;7.10;;
39768;SDS011;38939;47.824;14.642;2023-06-22T02:06:38;14.57;;;6.88;;
39768;SDS011;38939;47.824;14.642;2023-06-22T02:07:49;13.95;;;7.95;;
39768;SDS011;38939;47.824;14.642;2023-06-22T02:08:59;12.75;;;7.32;;
39768;SDS011;38939;47.824;14.642;2023-06-22T02:10:03;12.32;;;7.10;;
39768;SDS011;38939;47.824;14.642;2023-06-22T02:11:09;10.75;;;6.57;;
39768;SDS011;38939;47.824;14.642;2023-06-22T02:12:13;14.60;;;6.88;;
39768;SDS011;38939;47.824;14.642;2023-06-22T02:13:19;9.32;;;7.10;;
39768;SDS011;38939;47.824;14.642;2023-06-22T02:14:23;13.65;;;7.32;;
39768;SDS011;38939;47.824;14.642;2023-06-22T02:15:26;10.57;;;7.45;;
39768;SDS011;38939;47.824;14.642;2023-06-22T02:16:30;11.52;;;6.93;;
39768;SDS011;38939;47.824;14.642;2023-06-22T02:17:33;12.35;;;6.53;;
39768;SDS011;38939;47.824;14.642;2023-06-22T02:18:35;10.80;;;7.40;;
39768;SDS011;38939;47.824;14.642;2023-06-22T02:19:40;13.82;;;7.65;;
39768;SDS011;38939;47.824;14.642;2023-06-22T02:20:42;15.43;;;7.60;;
39768;SDS011;38939;47.824;14.642;2023-06-22T02:21:45;14.15;;;7.43;;
39768;SDS011;38939;47.824;14.642;2023-06-22T02:22:47;12.80;;;8.20;;
39768;SDS011;38939;47.824;14.642;2023-06-22T02:23:49;10.82;;;6.70;;
39768;SDS011;38939;47.824;14.642;2023-06-22T02:24:51;13.15;;;7.28;;
39768;SDS011;38939;47.824;14.642;2023-06-22T02:25:53;13.82;;;7.05;;
39768;SDS011;38939;47.824;14.642;2023-06-22T02:26:55;12.30;;;7.22;;
39768;SDS011;38939;47.824;14.642;2023-06-22T02:27:57;13.07;;;6.80;;
39768;SDS011;38939;47.824;14.642;2023-06-22T02:28:59;10.95;;;7.20;;
39768;SDS011;38939;47.824;14.642;2023-06-22T02:30:01;14.80;;;7.63;;
39768;SDS011;38939;47.824;14.642;2023-06-22T02:31:03;11.10;;;7.13;;
39768;SDS011;38939;47.824;14.642;2023-06-22T02:32:05;10.82;;;7.30;;
39768;SDS011;38939;47.824;14.642;2023-06-22T02:34:09;12.20;;;7.22;;
39768;SDS011;38939;47.824;14.642;2023-06-22T02:35:11;9.70;;;6.90;;
39768;SDS011;38939;47.824;14.642;2023-06-22T02:36:13;10.73;;;6.93;;
39768;SDS011;38939;47.824;14.642;2023-06-22T02:37:15;13.82;;;7.40;;
39768;SDS011;38939;47.824;14.642;2023-06-22T02:38:18;12.45;;;6.80;;
39768;SDS011;38939;47.824;14.642;2023-06-22T02:39:21;12.45;;;7.35;;
39768;SDS011;38939;47.824;14.642;2023-06-22T02:40:26;11.15;;;6.82;;
39768;SDS011;38939;47.824;14.642;2023-06-22T02:41:30;8.98;;;6.43;;
39768;SDS011;38939;47.824;14.642;2023-06-22T02:42:32;10.48;;;6.70;;
39768;SDS011;38939;47.824;14.642;2023-06-22T02:43:34;12.07;;;6.65;;
39768;SDS011;38939;47.824;14.642;2023-06-22T02:44:36;10.93;;;7.03;;
39768;SDS011;38939;47.824;14.642;2023-06-22T02:45:39;14.35;;;7.03;;
39768;SDS011;38939;47.824;14.642;2023-06-22T02:46:41;12.48;;;6.93;;
39768;SDS011;38939;47.824;14.642;2023-06-22T02:49:47;16.00;;;6.75;;
39768;SDS011;38939;47.824;14.642;2023-06-22T02:50:49;11.63;;;6.55;;
39768;SDS011;38939;47.824;14.642;2023-06-22T03:21:27;13.80;;;7.85;;
39768;SDS011;38939;47.824;14.642;2023-06-22T03:24:33;12.63;;;8.00;;
39768;SDS011;38939;47.824;14.642;2023-06-22T03:26:37;14.95;;;7.32;;
39768;SDS011;38939;47.824;14.642;2023-06-22T03:27:40;8.68;;;6.75;;
39768;SDS011;38939;47.824;14.642;2023-06-22T03:28:43;9.68;;;6.78;;
39768;SDS011;38939;47.824;14.642;2023-06-22T03:53:36;13.18;;;7.10;;
39768;SDS011;38939;47.824;14.642;2023-06-22T03:55:45;11.50;;;7.80;;
39768;SDS011;38939;47.824;14.642;2023-06-22T03:56:50;13.27;;;7.40;;
39768;SDS011;38939;47.824;14.642;2023-06-22T03:57:53;9.35;;;6.97;;
39768;SDS011;38939;47.824;14.642;2023-06-22T03:58:58;11.15;;;8.18;;
39768;SDS011;38939;47.824;14.642;2023-06-22T04:00:00;16.08;;;7.25;;
39768;SDS011;38939;47.824;14.642;2023-06-22T04:01:03;10.38;;;7.35;;
39768;SDS011;38939;47.824;14.642;2023-06-22T04:03:07;18.05;;;7.88;;
39768;SDS011;38939;47.824;14.642;2023-06-22T04:04:10;13.85;;;6.72;;
39768;SDS011;38939;47.824;14.642;2023-06-22T04:06:15;14.05;;;6.97;;
39768;SDS011;38939;47.824;14.642;2023-06-22T04:07:17;15.05;;;8.75;;
39768;SDS011;38939;47.824;14.642;2023-06-22T04:08:19;12.57;;;8.10;;
39768;SDS011;38939;47.824;14.642;2023-06-22T04:09:22;11.40;;;7.57;;
39768;SDS011;38939;47.824;14.642;2023-06-22T04:10:25;15.95;;;7.55;;
39768;SDS011;38939;47.824;14.642;2023-06-22T04:11:28;13.38;;;8.02;;
39768;SDS011;38939;47.824;14.642;2023-06-22T04:12:30;11.52;;;7.72;;
39768;SDS011;38939;47.824;14.642;2023-06-22T04:13:32;16.35;;;7.88;;
39768;SDS011;38939;47.824;14.642;2023-06-22T04:14:34;10.55;;;7.75;;
39768;SDS011;38939;47.824;14.642;2023-06-22T04:16:38;11.48;;;6.90;;
39768;SDS011;38939;47.824;14.642;2023-06-22T04:17:40;10.95;;;7.35;;
39768;SDS011;38939;47.824;14.642;2023-06-22T04:18:43;13.45;;;7.57;;
39768;SDS011;38939;47.824;14.642;2023-06-22T04:19:45;14.75;;;7.45;;
39768;SDS011;38939;47.824;14.642;2023-06-22T04:20:47;14.02;;;7.28;;
39768;SDS011;38939;47.824;14.642;2023-06-22T04:21:49;10.05;;;7.35;;
39768;SDS011;38939;47.824;14.642;2023-06-22T04:22:54;13.90;;;7.07;;
39768;SDS011;38939;47.824;14.642;2023-06-22T04:23:56;13.18;;;7.80;;
39768;SDS011;38939;47.824;14.642;2023-06-22T04:24:58;18.52;;;6.93;;
39768;SDS011;38939;47.824;14.642;2023-06-22T04:26:00;13.45;;;7.63;;
39768;SDS011;38939;47.824;14.642;2023-06-22T04:27:02;14.20;;;6.97;;
39768;SDS011;38939;47.824;14.642;2023-06-22T04:29:07;11.75;;;7.03;;
39768;SDS011;38939;47.824;14.642;2023-06-22T04:30:10;12.68;;;7.50;;
39768;SDS011;38939;47.824;14.642;2023-06-22T04:31:13;13.10;;;7.03;;
39768;SDS011;38939;47.824;14.642;2023-06-22T04:32:15;14.05;;;7.55;;
39768;SDS011;38939;47.824;14.642;2023-06-22T04:33:17;13.32;;;7.90;;
39768;SDS011;38939;47.824;14.642;2023-06-22T04:34:19;10.73;;;7.15;;
39768;SDS011;38939;47.824;14.642;2023-06-22T04:35:22;14.82;;;7.32;;
39768;SDS011;38939;47.824;14.642;2023-06-22T04:36:25;12.75;;;7.57;;
39768;SDS011;38939;47.824;14.642;2023-06-22T04:37:27;9.57;;;7.25;;
39768;SDS011;38939;47.824;14.642;2023-06-22T04:38:29;10.25;;;7.18;;
39768;SDS011;38939;47.824;14.642;2023-06-22T04:39:34;13.38;;;6.88;;
39768;SDS011;38939;47.824;14.642;2023-06-22T04:40:37;15.80;;;7.30;;
39768;SDS011;38939;47.824;14.642;2023-06-22T04:41:39;14.65;;;7.68;;
39768;SDS011;38939;47.824;14.642;2023-06-22T04:42:45;16.50;;;7.97;;
39768;SDS011;38939;47.824;14.642;2023-06-22T04:43:53;19.38;;;7.22;;
39768;SDS011;38939;47.824;14.642;2023-06-22T04:44:55;12.15;;;6.97;;
39768;SDS011;38939;47.824;14.642;2023-06-22T04:45:59;13.25;;;7.20;;
39768;SDS011;38939;47.824;14.642;2023-06-22T04:47:05;14.30;;;7.47;;
39768;SDS011;38939;47.824;14.642;2023-06-22T04:48:10;11.20;;;6.75;;
39768;SDS011;38939;47.824;14.642;2023-06-22T06:23:47;8.77;;;6.80;;
39768;SDS011;38939;47.824;14.642;2023-06-22T06:24:49;7.85;;;6.20;;
39768;SDS011;38939;47.824;14.642;2023-06-22T06:25:51;12.90;;;6.53;;
39768;SDS011;38939;47.824;14.642;2023-06-22T06:26:53;14.43;;;6.88;;
39768;SDS011;38939;47.824;14.642;2023-06-22T06:27:55;14.38;;;7.38;;
39768;SDS011;38939;47.824;14.642;2023-06-22T06:30:00;13.77;;;6.45;;
39768;SDS011;38939;47.824;14.642;2023-06-22T06:31:03;12.85;;;6.72;;
39768;SDS011;38939;47.824;14.642;2023-06-22T06:32:09;11.18;;;6.60;;
39768;SDS011;38939;47.824;14.642;2023-06-22T06:33:11;11.65;;;6.82;;
39768;SDS011;38939;47.824;14.642;2023-06-22T06:34:13;12.13;;;6.78;;
39768;SDS011;38939;47.824;14.642;2023-06-22T06:35:15;10.80;;;7.05;;
39768;SDS011;38939;47.824;14.642;2023-06-22T06:36:18;10.27;;;6.18;;
39768;SDS011;38939;47.824;14.642;2023-06-22T06:37:20;13.30;;;6.53;;
39768;SDS011;38939;47.824;14.642;2023-06-22T06:38:22;14.52;;;7.20;;
39768;SDS011;38939;47.824;14.642;2023-06-22T06:39:24;14.32;;;6.82;;
39768;SDS011;38939;47.824;14.642;2023-06-22T06:40:27;13.13;;;6.57;;
39768;SDS011;38939;47.824;14.642;2023-06-22T06:41:29;14.23;;;7.10;;
39768;SDS011;38939;47.824;14.642;2023-06-22T06:42:31;9.25;;;6.35;;
39768;SDS011;38939;47.824;14.642;2023-06-22T06:43:33;11.02;;;6.20;;
39768;SDS011;38939;47.824;14.642;2023-06-22T06:44:35;10.05;;;6.53;;
39768;SDS011;38939;47.824;14.642;2023-06-22T06:45:39;12.10;;;6.85;;
39768;SDS011;38939;47.824;14.642;2023-06-22T06:46:41;9.15;;;6.93;;
39768;SDS011;38939;47.824;14.642;2023-06-22T06:47:44;12.13;;;6.20;;
39768;SDS011;38939;47.824;14.642;2023-06-22T06:48:47;10.77;;;5.72;;
39768;SDS011;38939;47.824;14.642;2023-06-22T06:49:49;10.75;;;6.60;;
39768;SDS011;38939;47.824;14.642;2023-06-22T06:50:51;10.10;;;6.28;;
39768;SDS011;38939;47.824;14.642;2023-06-22T06:51:53;11.63;;;6.53;;
39768;SDS011;38939;47.824;14.642;2023-06-22T06:52:55;9.48;;;6.60;;
39768;SDS011;38939;47.824;14.642;2023-06-22T06:53:58;13.95;;;6.05;;
39768;SDS011;38939;47.824;14.642;2023-06-22T06:55:00;11.27;;;6.22;;
39768;SDS011;38939;47.824;14.642;2023-06-22T06:56:02;11.38;;;6.43;;
39768;SDS011;38939;47.824;14.642;2023-06-22T06:57:04;11.52;;;6.28;;
39768;SDS011;38939;47.824;14.642;2023-06-22T06:58:06;13.13;;;6.80;;
39768;SDS011;38939;47.824;14.642;2023-06-22T06:59:11;16.00;;;6.38;;
39768;SDS011;38939;47.824;14.642;2023-06-22T07:00:13;10.70;;;7.18;;
39768;SDS011;38939;47.824;14.642;2023-06-22T07:01:16;12.55;;;6.07;;
39768;SDS011;38939;47.824;14.642;2023-06-22T07:02:26;9.07;;;6.10;;
39768;SDS011;38939;47.824;14.642;2023-06-22T07:03:29;11.15;;;6.63;;
39768;SDS011;38939;47.824;14.642;2023-06-22T07:04:31;14.65;;;6.88;;
39768;SDS011;38939;47.824;14.642;2023-06-22T07:05:33;15.20;;;6.88;;
39768;SDS011;38939;47.824;14.642;2023-06-22T07:06:36;10.43;;;6.32;;
39768;SDS011;38939;47.824;14.642;2023-06-22T07:07:39;11.02;;;5.90;;
39768;SDS011;38939;47.824;14.642;2023-06-22T07:08:43;11.38;;;6.00;;
39768;SDS011;38939;47.824;14.642;2023-06-22T07:09:45;10.00;;;6.25;;
39768;SDS011;38939;47.824;14.642;2023-06-22T07:10:47;12.65;;;7.07;;
39768;SDS011;38939;47.824;14.642;2023-06-22T07:11:48;12.77;;;6.80;;
39768;SDS011;38939;47.824;14.642;2023-06-22T07:12:50;13.00;;;6.68;;
39768;SDS011;38939;47.824;14.642;2023-06-22T07:13:52;15.35;;;6.57;;
39768;SDS011;38939;47.824;14.642;2023-06-22T07:14:57;12.75;;;6.32;;
39768;SDS011;38939;47.824;14.642;2023-06-22T07:16:06;15.32;;;6.47;;
39768;SDS011;38939;47.824;14.642;2023-06-22T07:17:08;11.80;;;6.30;;
39768;SDS011;38939;47.824;14.642;2023-06-22T07:18:10;10.77;;;6.10;;
39768;SDS011;38939;47.824;14.642;2023-06-22T07:20:15;8.52;;;5.60;;
39768;SDS011;38939;47.824;14.642;2023-06-22T07:21:16;10.60;;;5.95;;
39768;SDS011;38939;47.824;14.642;2023-06-22T07:22:18;7.97;;;6.03;;
39768;SDS011;38939;47.824;14.642;2023-06-22T07:23:20;12.10;;;6.55;;
39768;SDS011;38939;47.824;14.642;2023-06-22T07:24:23;9.13;;;6.72;;
39768;SDS011;38939;47.824;14.642;2023-06-22T07:25:26;9.80;;;6.55;;
39768;SDS011;38939;47.824;14.642;2023-06-22T07:26:29;13.00;;;6.88;;
39768;SDS011;38939;47.824;14.642;2023-06-22T07:27:31;12.52;;;6.30;;
39768;SDS011;38939;47.824;14.642;2023-06-22T07:28:37;12.88;;;6.65;;
39768;SDS011;38939;47.824;14.642;2023-06-22T07:29:39;10.07;;;5.97;;
39768;SDS011;38939;47.824;14.642;2023-06-22T07:30:42;12.45;;;6.68;;
39768;SDS011;38939;47.824;14.642;2023-06-22T07:31:44;10.15;;;6.80;;
39768;SDS011;38939;47.824;14.642;2023-06-22T07:32:46;10.00;;;6.15;;
39768;SDS011;38939;47.824;14.642;2023-06-22T07:33:48;7.85;;;5.65;;
39768;SDS011;38939;47.824;14.642;2023-06-22T07:34:50;11.77;;;6.40;;
39768;SDS011;38939;47.824;14.642;2023-06-22T07:35:52;11.57;;;6.72;;
39768;SDS011;38939;47.824;14.642;2023-06-22T07:36:55;9.85;;;6.18;;
39768;SDS011;38939;47.824;14.642;2023-06-22T07:38:58;12.85;;;5.88;;
39768;SDS011;38939;47.824;14.642;2023-06-22T07:40:00;10.68;;;6.40;;
39768;SDS011;38939;47.824;14.642;2023-06-22T07:41:06;9.38;;;6.05;;
39768;SDS011;38939;47.824;14.642;2023-06-22T07:42:08;9.63;;;6.47;;
39768;SDS011;38939;47.824;14.642;2023-06-22T07:43:11;11.90;;;6.30;;
39768;SDS011;38939;47.824;14.642;2023-06-22T07:45:15;13.75;;;6.32;;
39768;SDS011;38939;47.824;14.642;2023-06-22T07:46:17;18.38;;;7.03;;
39768;SDS011;38939;47.824;14.642;2023-06-22T07:47:19;12.55;;;6.78;;
39768;SDS011;38939;47.824;14.642;2023-06-22T07:48:21;9.32;;;6.38;;
39768;SDS011;38939;47.824;14.642;2023-06-22T07:49:23;10.48;;;6.47;;
39768;SDS011;38939;47.824;14.642;2023-06-22T07:50:25;11.27;;;7.00;;
39768;SDS011;38939;47.824;14.642;2023-06-22T07:51:28;10.98;;;6.25;;
39768;SDS011;38939;47.824;14.642;2023-06-22T07:52:30;12.48;;;6.45;;
39768;SDS011;38939;47.824;14.642;2023-06-22T07:53:32;12.05;;;6.65;;
39768;SDS011;38939;47.824;14.642;2023-06-22T07:54:34;11.25;;;6.55;;
39768;SDS011;38939;47.824;14.642;2023-06-22T07:55:36;16.45;;;6.75;;
39768;SDS011;38939;47.824;14.642;2023-06-22T07:56:38;16.77;;;7.20;;
39768;SDS011;38939;47.824;14.642;2023-06-22T07:57:40;16.48;;;7.13;;
39768;SDS011;38939;47.824;14.642;2023-06-22T07:58:44;14.73;;;6.88;;
39768;SDS011;38939;47.824;14.642;2023-06-22T07:59:47;17.95;;;7.18;;
39768;SDS011;38939;47.824;14.642;2023-06-22T08:00:49;9.40;;;6.20;;
39768;SDS011;38939;47.824;14.642;2023-06-22T08:01:51;13.75;;;6.97;;
39768;SDS011;38939;47.824;14.642;2023-06-22T08:02:53;14.98;;;7.22;;
39768;SDS011;38939;47.824;14.642;2023-06-22T08:03:56;18.23;;;6.53;;
39768;SDS011;38939;47.824;14.642;2023-06-22T08:04:58;11.05;;;6.65;;
39768;SDS011;38939;47.824;14.642;2023-06-22T08:06:15;10.00;;;6.32;;
39768;SDS011;38939;47.824;14.642;2023-06-22T08:08:21;10.52;;;6.30;;
39768;SDS011;38939;47.824;14.642;2023-06-22T08:09:23;12.75;;;7.03;;
39768;SDS011;38939;47.824;14.642;2023-06-22T08:10:25;15.43;;;6.32;;
39768;SDS011;38939;47.824;14.642;2023-06-22T08:11:27;15.27;;;6.82;;
39768;SDS011;38939;47.824;14.642;2023-06-22T08:12:30;9.57;;;6.85;;
39768;SDS011;38939;47.824;14.642;2023-06-22T08:13:32;9.38;;;6.75;;
39768;SDS011;38939;47.824;14.642;2023-06-22T08:16:39;15.05;;;7.22;;
39768;SDS011;38939;47.824;14.642;2023-06-22T08:17:43;13.10;;;6.50;;
39768;SDS011;38939;47.824;14.642;2023-06-22T08:18:47;17.52;;;7.22;;
39768;SDS011;38939;47.824;14.642;2023-06-22T08:20:51;14.52;;;6.47;;
39768;SDS011;38939;47.824;14.642;2023-06-22T08:22:55;11.40;;;6.30;;
39768;SDS011;38939;47.824;14.642;2023-06-22T08:23:59;10.93;;;6.88;;
39768;SDS011;38939;47.824;14.642;2023-06-22T08:25:01;16.38;;;6.72;;
39768;SDS011;38939;47.824;14.642;2023-06-22T08:26:03;18.05;;;7.47;;
39768;SDS011;38939;47.824;14.642;2023-06-22T08:27:09;14.40;;;7.13;;
39768;SDS011;38939;47.824;14.642;2023-06-22T08:28:13;12.38;;;6.85;;
39768;SDS011;38939;47.824;14.642;2023-06-22T08:29:15;10.50;;;6.60;;
39768;SDS011;38939;47.824;14.642;2023-06-22T08:30:17;18.10;;;7.45;;
39768;SDS011;38939;47.824;14.642;2023-06-22T08:31:20;19.55;;;7.25;;
39768;SDS011;38939;47.824;14.642;2023-06-22T08:33:24;16.77;;;6.72;;
39768;SDS011;38939;47.824;14.642;2023-06-22T08:34:30;12.68;;;6.88;;
39768;SDS011;38939;47.824;14.642;2023-06-22T08:35:32;13.85;;;6.50;;
39768;SDS011;38939;47.824;14.642;2023-06-22T08:36:34;12.10;;;6.93;;
39768;SDS011;38939;47.824;14.642;2023-06-22T08:37:43;14.15;;;6.40;;
39768;SDS011;38939;47.824;14.642;2023-06-22T08:38:47;10.98;;;6.65;;
39768;SDS011;38939;47.824;14.642;2023-06-22T08:39:52;15.43;;;6.75;;
39768;SDS011;38939;47.824;14.642;2023-06-22T08:40:55;17.73;;;6.97;;
39768;SDS011;38939;47.824;14.642;2023-06-22T08:41:57;13.77;;;6.25;;
39768;SDS011;38939;47.824;14.642;2023-06-22T08:44:01;11.77;;;6.32;;
39768;SDS011;38939;47.824;14.642;2023-06-22T08:45:04;14.38;;;6.88;;
39768;SDS011;38939;47.824;14.642;2023-06-22T08:46:06;16.98;;;7.72;;
39768;SDS011;38939;47.824;14.642;2023-06-22T08:47:08;12.50;;;6.53;;
39768;SDS011;38939;47.824;14.642;2023-06-22T08:49:12;10.88;;;6.53;;
39768;SDS011;38939;47.824;14.642;2023-06-22T08:50:14;16.95;;;6.50;;
39768;SDS011;38939;47.824;14.642;2023-06-22T08:51:17;12.10;;;6.50;;
39768;SDS011;38939;47.824;14.642;2023-06-22T10:19:58;16.45;;;7.22;;
39768;SDS011;38939;47.824;14.642;2023-06-22T10:21:00;11.93;;;6.28;;
39768;SDS011;38939;47.824;14.642;2023-06-22T10:22:03;10.07;;;6.30;;
39768;SDS011;38939;47.824;14.642;2023-06-22T10:23:06;13.80;;;6.43;;
39768;SDS011;38939;47.824;14.642;2023-06-22T10:24:08;18.08;;;6.93;;
39768;SDS011;38939;47.824;14.642;2023-06-22T14:19:36;10.25;;;5.75;;
39768;SDS011;38939;47.824;14.642;2023-06-22T14:20:38;11.38;;;5.85;;
39768;SDS011;38939;47.824;14.642;2023-06-22T14:21:41;10.85;;;5.15;;
39768;SDS011;38939;47.824;14.642;2023-06-22T14:22:44;8.43;;;5.43;;
39768;SDS011;38939;47.824;14.642;2023-06-22T14:23:46;7.22;;;5.22;;
39768;SDS011;38939;47.824;14.642;2023-06-22T18:43:51;16.55;;;4.18;;
39768;SDS011;38939;47.824;14.642;2023-06-22T18:44:55;9.80;;;3.70;;
39768;SDS011;38939;47.824;14.642;2023-06-22T18:46:09;11.77;;;3.90;;
39768;SDS011;38939;47.824;14.642;2023-06-22T19:11:38;13.10;;;4.05;;
39768;SDS011;38939;47.824;14.642;2023-06-22T19:12:40;9.38;;;3.75;;
39768;SDS011;38939;47.824;14.642;2023-06-22T19:13:45;11.65;;;3.60;;
39768;SDS011;38939;47.824;14.642;2023-06-22T19:14:59;12.70;;;3.40;;
39768;SDS011;38939;47.824;14.642;2023-06-22T19:16:05;11.43;;;3.63;;
39768;SDS011;38939;47.824;14.642;2023-06-22T19:17:08;10.95;;;3.17;;
39768;SDS011;38939;47.824;14.642;2023-06-22T19:19:23;9.55;;;3.97;;
39768;SDS011;38939;47.824;14.642;2023-06-22T19:20:31;9.23;;;4.40;;
39768;SDS011;38939;47.824;14.642;2023-06-22T19:21:35;15.57;;;3.70;;
39768;SDS011;38939;47.824;14.642;2023-06-22T19:22:54;13.13;;;3.88;;
39768;SDS011;38939;47.824;14.642;2023-06-22T19:23:58;12.38;;;3.65;;
39768;SDS011;38939;47.824;14.642;2023-06-22T19:25:02;14.57;;;4.40;;
39768;SDS011;38939;47.824;14.642;2023-06-22T19:26:08;13.13;;;4.13;;
39768;SDS011;38939;47.824;14.642;2023-06-22T19:27:14;9.77;;;3.90;;
39768;SDS011;38939;47.824;14.642;2023-06-22T19:28:17;13.20;;;3.80;;
39768;SDS011;38939;47.824;14.642;2023-06-22T19:29:19;8.23;;;3.70;;
39768;SDS011;38939;47.824;14.642;2023-06-22T19:30:22;11.07;;;4.15;;
39768;SDS011;38939;47.824;14.642;2023-06-22T19:31:25;12.40;;;4.57;;
39768;SDS011;38939;47.824;14.642;2023-06-22T19:32:30;9.43;;;3.38;;
39768;SDS011;38939;47.824;14.642;2023-06-22T19:33:33;11.00;;;3.83;;
39768;SDS011;38939;47.824;14.642;2023-06-22T19:35:47;9.50;;;3.15;;
39768;SDS011;38939;47.824;14.642;2023-06-22T19:37:51;9.68;;;3.53;;
39768;SDS011;38939;47.824;14.642;2023-06-22T19:38:53;12.75;;;4.15;;
39768;SDS011;38939;47.824;14.642;2023-06-22T19:39:56;10.02;;;2.83;;
39768;SDS011;38939;47.824;14.642;2023-06-22T19:40:59;8.18;;;2.72;;
39768;SDS011;38939;47.824;14.642;2023-06-22T19:42:02;9.43;;;3.03;;
39768;SDS011;38939;47.824;14.642;2023-06-22T19:43:05;8.03;;;2.97;;
39768;SDS011;38939;47.824;14.642;2023-06-22T19:44:08;10.90;;;3.17;;
39768;SDS011;38939;47.824;14.642;2023-06-22T19:45:14;6.78;;;3.10;;
39768;SDS011;38939;47.824;14.642;2023-06-22T19:46:25;8.95;;;3.03;;
39768;SDS011;38939;47.824;14.642;2023-06-22T19:47:36;9.73;;;3.63;;
39768;SDS011;38939;47.824;14.642;2023-06-22T19:48:39;7.72;;;3.60;;
39768;SDS011;38939;47.824;14.642;2023-06-22T19:50:44;9.00;;;2.50;;
39768;SDS011;38939;47.824;14.642;2023-06-22T19:51:46;11.63;;;2.95;;
39768;SDS011;38939;47.824;14.642;2023-06-22T19:53:50;12.15;;;3.17;;
39768;SDS011;38939;47.824;14.642;2023-06-22T19:54:52;13.60;;;3.63;;
39768;SDS011;38939;47.824;14.642;2023-06-22T19:55:54;11.88;;;3.88;;
39768;SDS011;38939;47.824;14.642;2023-06-22T19:58:04;14.85;;;3.80;;
39768;SDS011;38939;47.824;14.642;2023-06-22T19:59:10;12.38;;;3.90;;
39768;SDS011;38939;47.824;14.642;2023-06-22T20:00:22;7.50;;;3.30;;
39768;SDS011;38939;47.824;14.642;2023-06-22T20:01:24;9.50;;;3.28;;
39768;SDS011;38939;47.824;14.642;2023-06-22T20:03:31;9.15;;;3.58;;
39768;SDS011;38939;47.824;14.642;2023-06-22T20:04:39;13.88;;;3.58;;
39768;SDS011;38939;47.824;14.642;2023-06-22T20:05:41;14.82;;;4.20;;
39768;SDS011;38939;47.824;14.642;2023-06-22T20:07:04;6.50;;;3.05;;
39768;SDS011;38939;47.824;14.642;2023-06-22T20:08:10;16.30;;;3.88;;
39768;SDS011;38939;47.824;14.642;2023-06-22T20:09:17;10.75;;;3.10;;
39768;SDS011;38939;47.824;14.642;2023-06-22T20:10:20;12.63;;;3.65;;
39768;SDS011;38939;47.824;14.642;2023-06-22T20:11:27;10.57;;;3.42;;
39768;SDS011;38939;47.824;14.642;2023-06-22T20:12:32;11.52;;;2.80;;
39768;SDS011;38939;47.824;14.642;2023-06-22T20:13:34;9.52;;;3.33;;
39768;SDS011;38939;47.824;14.642;2023-06-22T20:14:36;11.10;;;3.47;;
39768;SDS011;38939;47.824;14.642;2023-06-22T20:15:45;7.72;;;3.45;;
39768;SDS011;38939;47.824;14.642;2023-06-22T20:16:48;13.40;;;3.95;;
39768;SDS011;38939;47.824;14.642;2023-06-22T20:20:23;8.38;;;3.15;;
39768;SDS011;38939;47.824;14.642;2023-06-22T20:21:26;12.48;;;3.10;;